Time;durP1;ratioP1;P1;durP2;ratioP2;P2;SDS_P1;SDS_P2;PMS_P1;PMS_P2;Temp;Humidity;BMP_temperature;BMP_pressure;BME280_temperature;BME280_humidity;BME280_pressure;Samples;Min_cycle;Max_cycle;Signal;HPM_P1;HPM_P2
2021/10/19 00:00:35;;;;;;;19.73;13.50;;;8.60;99.90;;;;;;5072337;28;20201;-56
2021/10/19 00:03:03;;;;;;;19.17;13.90;;;8.60;99.90;;;;;;5072097;28;20559;-57
2021/10/19 00:05:30;;;;;;;21.77;14.30;;;8.60;99.90;;;;;;5072264;28;20586;-58
2021/10/19 00:07:56;;;;;;;19.30;14.27;;;8.60;99.90;;;;;;5072012;28;20227;-56
2021/10/19 00:10:23;;;;;;;19.57;14.30;;;8.60;99.90;;;;;;5072037;28;20299;-56
2021/10/19 00:12:50;;;;;;;17.13;12.03;;;8.70;99.90;;;;;;5072060;28;20208;-56
2021/10/19 00:15:18;;;;;;;14.27;10.97;;;8.60;99.90;;;;;;5071805;28;20255;-56
2021/10/19 00:17:45;;;;;;;13.63;10.60;;;8.70;99.90;;;;;;5071970;28;20248;-57
2021/10/19 00:20:15;;;;;;;13.73;10.73;;;8.70;99.90;;;;;;5072111;28;20231;-55
2021/10/19 00:22:43;;;;;;;12.90;9.87;;;8.70;99.90;;;;;;5072271;28;20262;-56
2021/10/19 00:25:14;;;;;;;14.33;10.07;;;8.70;99.90;;;;;;5072302;28;20220;-58
2021/10/19 00:27:42;;;;;;;13.10;10.47;;;8.60;99.90;;;;;;5071668;28;20225;-57
2021/10/19 00:30:10;;;;;;;14.07;10.20;;;8.50;99.90;;;;;;5071894;28;20201;-54
2021/10/19 00:32:37;;;;;;;13.37;10.83;;;8.50;99.90;;;;;;5071744;28;20656;-56
2021/10/19 00:35:05;;;;;;;17.00;12.90;;;8.50;99.90;;;;;;5071645;28;20245;-56
2021/10/19 00:37:33;;;;;;;22.37;14.07;;;8.50;99.90;;;;;;5103937;22;20228;-60
2021/10/19 00:40:00;;;;;;;19.33;14.07;;;8.50;99.90;;;;;;5092514;28;20647;-61
2021/10/19 00:42:27;;;;;;;20.40;13.63;;;8.40;99.90;;;;;;5092916;28;20204;-61
2021/10/19 00:44:53;;;;;;;19.67;13.80;;;8.30;99.90;;;;;;5093036;28;20204;-61
2021/10/19 00:47:22;;;;;;;18.90;14.30;;;8.30;99.90;;;;;;5093617;28;20315;-61
2021/10/19 00:49:49;;;;;;;17.50;13.27;;;8.30;99.90;;;;;;5092749;28;20209;-61
2021/10/19 00:52:16;;;;;;;18.63;12.70;;;8.10;99.90;;;;;;5092430;28;20224;-61
2021/10/19 00:54:45;;;;;;;16.73;13.40;;;8.00;99.90;;;;;;5092174;28;20219;-60
2021/10/19 00:57:12;;;;;;;17.07;12.30;;;8.00;99.90;;;;;;5092484;28;20228;-61
2021/10/19 00:59:44;;;;;;;15.80;12.67;;;8.00;99.90;;;;;;5092854;28;20204;-61
2021/10/19 01:02:11;;;;;;;16.67;12.40;;;8.00;99.90;;;;;;5092552;28;20219;-61
2021/10/19 01:04:38;;;;;;;17.33;13.10;;;8.00;99.90;;;;;;5092868;28;20307;-63
2021/10/19 01:07:05;;;;;;;17.47;14.00;;;8.10;99.90;;;;;;5093102;28;20228;-62
2021/10/19 01:09:32;;;;;;;16.47;12.63;;;8.10;99.90;;;;;;5091414;28;20732;-62
2021/10/19 01:11:59;;;;;;;18.57;13.00;;;8.10;99.90;;;;;;5092519;28;20224;-61
2021/10/19 01:14:26;;;;;;;20.50;12.87;;;8.20;99.90;;;;;;5092225;28;20200;-61
2021/10/19 01:16:53;;;;;;;16.23;12.53;;;8.20;99.90;;;;;;5091761;28;20224;-61
2021/10/19 01:19:23;;;;;;;19.93;13.63;;;8.20;99.90;;;;;;5092081;28;20208;-61
2021/10/19 01:21:53;;;;;;;19.00;12.80;;;8.20;99.90;;;;;;5092295;28;20215;-61
2021/10/19 01:24:20;;;;;;;18.47;13.60;;;8.30;99.90;;;;;;5092011;28;20213;-61
2021/10/19 01:26:46;;;;;;;17.37;13.00;;;8.30;99.90;;;;;;5091966;28;20211;-61
2021/10/19 01:29:14;;;;;;;15.70;12.43;;;8.40;99.90;;;;;;5091840;28;20204;-61
2021/10/19 01:31:45;;;;;;;16.33;12.67;;;8.40;99.90;;;;;;5091826;28;20215;-61
2021/10/19 01:34:11;;;;;;;17.40;13.37;;;8.40;99.90;;;;;;5091484;28;20265;-62
2021/10/19 01:36:38;;;;;;;17.80;12.70;;;8.50;99.90;;;;;;5091763;28;20270;-62
2021/10/19 01:39:07;;;;;;;17.70;13.30;;;8.60;99.90;;;;;;5093142;28;20208;-61
2021/10/19 01:41:34;;;;;;;16.13;12.43;;;8.70;99.90;;;;;;5094089;28;20306;-61
2021/10/19 01:44:00;;;;;;;17.17;12.77;;;8.70;99.90;;;;;;5092610;28;20204;-61
2021/10/19 01:46:27;;;;;;;15.47;12.53;;;8.80;99.90;;;;;;5091802;28;20212;-61
2021/10/19 01:48:56;;;;;;;18.00;13.20;;;8.80;99.90;;;;;;5091641;28;20228;-61
2021/10/19 01:51:23;;;;;;;18.47;12.97;;;8.80;99.90;;;;;;5091734;28;20700;-61
2021/10/19 01:53:50;;;;;;;16.43;12.73;;;8.90;99.90;;;;;;5091713;28;20208;-61
2021/10/19 01:56:18;;;;;;;17.47;12.40;;;8.90;99.90;;;;;;5091447;28;20212;-61
2021/10/19 01:58:45;;;;;;;16.17;12.43;;;8.90;99.90;;;;;;5090943;28;20782;-61
2021/10/19 02:01:12;;;;;;;20.17;13.93;;;8.90;99.90;;;;;;5091432;28;20204;-61
2021/10/19 02:03:39;;;;;;;15.87;12.60;;;8.90;99.90;;;;;;5090809;28;20204;-62
2021/10/19 02:06:06;;;;;;;15.67;12.50;;;9.00;99.90;;;;;;5091651;28;20589;-61
2021/10/19 02:08:33;;;;;;;17.97;13.47;;;9.10;99.90;;;;;;5090762;28;20676;-61
2021/10/19 02:11:00;;;;;;;15.50;12.03;;;9.10;99.90;;;;;;5091160;28;20246;-61
2021/10/19 02:13:28;;;;;;;17.43;12.33;;;9.20;99.90;;;;;;5091126;28;20211;-61
2021/10/19 02:15:55;;;;;;;14.17;12.00;;;9.20;99.90;;;;;;5091094;28;20204;-62
2021/10/19 02:18:22;;;;;;;15.43;11.80;;;9.10;99.90;;;;;;5090965;28;20228;-61
2021/10/19 02:20:48;;;;;;;15.57;11.70;;;9.10;99.90;;;;;;5092305;28;20629;-61
2021/10/19 02:23:15;;;;;;;14.67;11.70;;;9.10;99.90;;;;;;5095894;28;20215;-61
2021/10/19 02:25:42;;;;;;;15.00;11.53;;;9.20;99.90;;;;;;5095604;28;20208;-61
2021/10/19 02:28:09;;;;;;;14.00;11.20;;;9.10;99.90;;;;;;5094926;28;20227;-61
2021/10/19 02:30:37;;;;;;;16.37;10.87;;;9.10;99.90;;;;;;5094792;28;20200;-61
2021/10/19 02:33:04;;;;;;;13.07;10.63;;;9.00;99.90;;;;;;5095129;28;20224;-61
2021/10/19 02:35:30;;;;;;;14.07;10.60;;;9.00;99.90;;;;;;5094822;28;20208;-60
2021/10/19 02:37:58;;;;;;;13.57;11.37;;;9.00;99.90;;;;;;5094454;28;20735;-60
2021/10/19 02:40:25;;;;;;;15.17;11.07;;;9.10;99.90;;;;;;5094584;28;20675;-60
2021/10/19 02:42:52;;;;;;;14.27;10.60;;;9.10;99.90;;;;;;5094771;28;20204;-60
2021/10/19 02:45:19;;;;;;;15.47;11.77;;;9.10;99.90;;;;;;5094764;28;20208;-60
2021/10/19 02:47:48;;;;;;;14.93;11.10;;;9.20;99.90;;;;;;5094286;28;20871;-60
2021/10/19 02:50:15;;;;;;;15.87;11.20;;;9.30;99.90;;;;;;5094648;28;20204;-60
2021/10/19 02:52:42;;;;;;;13.23;10.53;;;9.50;99.90;;;;;;5094384;28;20274;-60
2021/10/19 02:55:12;;;;;;;12.30;9.67;;;9.50;99.90;;;;;;5094287;28;20204;-60
2021/10/19 02:57:39;;;;;;;13.03;10.63;;;9.60;99.90;;;;;;5094352;28;20228;-60
2021/10/19 03:00:07;;;;;;;12.53;10.63;;;9.70;99.90;;;;;;5094227;28;20223;-61
2021/10/19 03:02:34;;;;;;;13.77;10.87;;;9.70;99.90;;;;;;5094500;28;20451;-60
2021/10/19 03:05:03;;;;;;;11.83;10.27;;;9.70;99.90;;;;;;5094642;28;20204;-60
2021/10/19 03:07:29;;;;;;;13.43;10.47;;;9.70;99.90;;;;;;5094730;28;20224;-61
2021/10/19 03:09:56;;;;;;;12.30;9.97;;;9.80;99.90;;;;;;5093718;28;20201;-61
2021/10/19 03:12:23;;;;;;;11.80;10.03;;;9.80;99.90;;;;;;5094002;28;20232;-60
2021/10/19 03:14:49;;;;;;;13.83;10.10;;;9.70;99.90;;;;;;5093974;28;20215;-61
2021/10/19 03:17:16;;;;;;;12.20;9.53;;;9.80;99.90;;;;;;5094057;28;20231;-61
2021/10/19 03:19:43;;;;;;;13.50;10.70;;;9.80;99.90;;;;;;5094116;28;20234;-61
2021/10/19 03:22:11;;;;;;;12.87;10.30;;;9.80;99.90;;;;;;5094118;28;20206;-60
2021/10/19 03:24:37;;;;;;;14.43;10.73;;;9.90;99.90;;;;;;5094359;28;20208;-61
2021/10/19 03:27:04;;;;;;;13.70;10.33;;;9.90;99.90;;;;;;5094280;28;20469;-61
2021/10/19 03:29:31;;;;;;;12.43;10.00;;;10.00;99.90;;;;;;5095419;28;20203;-62
2021/10/19 03:31:58;;;;;;;11.23;9.77;;;10.10;99.90;;;;;;5095945;28;20589;-61
2021/10/19 03:34:25;;;;;;;11.23;9.43;;;10.10;99.90;;;;;;5096289;28;20211;-61
2021/10/19 03:36:51;;;;;;;11.77;9.40;;;10.10;99.90;;;;;;5093637;28;20224;-61
2021/10/19 03:39:19;;;;;;;13.17;9.33;;;10.10;99.90;;;;;;5093338;28;20208;-61
2021/10/19 03:41:46;;;;;;;10.70;8.77;;;10.10;99.90;;;;;;5093675;28;20683;-61
2021/10/19 03:44:13;;;;;;;11.43;9.37;;;10.00;99.90;;;;;;5093870;28;20687;-61
2021/10/19 03:46:40;;;;;;;11.93;8.90;;;10.10;99.90;;;;;;5093946;28;20634;-61
2021/10/19 03:49:06;;;;;;;13.27;9.57;;;10.10;99.90;;;;;;5094217;28;20213;-61
2021/10/19 03:51:33;;;;;;;12.07;9.43;;;10.10;99.90;;;;;;5093499;28;20208;-62
2021/10/19 03:54:00;;;;;;;17.47;9.67;;;10.00;99.90;;;;;;5093524;28;20204;-61
2021/10/19 03:56:28;;;;;;;13.33;9.70;;;10.00;99.90;;;;;;5093896;28;20204;-61
2021/10/19 03:58:55;;;;;;;12.57;9.13;;;9.90;99.90;;;;;;5093354;28;20223;-61
2021/10/19 04:01:21;;;;;;;10.73;9.00;;;9.80;99.90;;;;;;5093390;28;20624;-61
2021/10/19 04:03:48;;;;;;;12.30;8.87;;;9.70;99.90;;;;;;5093042;28;20212;-61
2021/10/19 04:06:15;;;;;;;12.47;9.90;;;9.70;99.90;;;;;;5093888;28;20215;-60
2021/10/19 04:08:41;;;;;;;12.33;9.47;;;9.70;99.90;;;;;;5094525;28;20277;-61
2021/10/19 04:11:08;;;;;;;12.77;10.13;;;9.80;99.90;;;;;;5092524;28;20560;-60
2021/10/19 04:13:36;;;;;;;13.30;9.43;;;9.90;99.90;;;;;;5092553;28;20231;-61
2021/10/19 04:16:03;;;;;;;11.40;9.37;;;10.00;99.90;;;;;;5092452;28;20208;-61
2021/10/19 04:18:29;;;;;;;13.70;9.13;;;9.90;99.90;;;;;;5092002;28;20220;-61
2021/10/19 04:20:56;;;;;;;14.17;10.33;;;9.90;99.90;;;;;;5092856;28;20227;-61
2021/10/19 04:23:23;;;;;;;12.10;10.27;;;10.00;99.90;;;;;;5092166;28;20196;-60
2021/10/19 04:25:50;;;;;;;11.87;10.03;;;10.20;99.90;;;;;;5092345;28;20223;-61
2021/10/19 04:28:17;;;;;;;12.47;10.27;;;10.30;99.90;;;;;;5092104;28;20256;-61
2021/10/19 04:30:46;;;;;;;11.80;9.70;;;10.40;99.90;;;;;;5091973;28;20215;-61
2021/10/19 04:33:13;;;;;;;12.13;10.03;;;10.40;99.90;;;;;;5091979;28;20703;-61
2021/10/19 04:35:39;;;;;;;12.33;10.10;;;10.50;99.90;;;;;;5092059;28;20246;-60
2021/10/19 04:38:06;;;;;;;14.03;9.30;;;10.50;99.90;;;;;;5091888;28;20228;-61
2021/10/19 04:40:33;;;;;;;11.53;9.27;;;10.60;99.90;;;;;;5092410;28;20208;-61
2021/10/19 04:43:00;;;;;;;11.67;9.67;;;10.60;99.90;;;;;;5091856;28;20660;-60
2021/10/19 04:45:28;;;;;;;11.73;9.63;;;10.60;99.90;;;;;;5091044;28;20671;-60
2021/10/19 04:47:56;;;;;;;11.67;9.07;;;10.50;99.90;;;;;;5092024;28;20220;-61
2021/10/19 04:50:24;;;;;;;12.83;9.03;;;10.60;99.90;;;;;;5092435;28;20315;-60
2021/10/19 04:52:50;;;;;;;15.33;9.27;;;10.60;99.90;;;;;;5092141;28;20243;-60
2021/10/19 04:55:17;;;;;;;12.17;8.77;;;10.50;99.90;;;;;;5092029;28;20208;-61
2021/10/19 04:57:44;;;;;;;9.80;8.27;;;10.60;99.90;;;;;;5091826;28;20231;-60
2021/10/19 05:00:12;;;;;;;14.90;12.13;;;10.60;99.90;;;;;;5092261;28;20204;-62
2021/10/19 05:02:46;;;;;;;22.80;16.10;;;10.60;99.90;;;;;;5091511;28;20454;-61
2021/10/19 05:05:14;;;;;;;13.47;9.83;;;10.60;99.90;;;;;;5091643;28;20203;-60
2021/10/19 05:07:41;;;;;;;14.37;11.63;;;10.70;99.90;;;;;;5092040;28;20243;-61
2021/10/19 05:10:09;;;;;;;13.53;9.17;;;10.80;99.90;;;;;;5091849;28;20211;-60
2021/10/19 05:12:35;;;;;;;13.67;10.30;;;10.80;99.90;;;;;;5091413;28;20228;-60
2021/10/19 05:15:02;;;;;;;13.27;9.80;;;10.80;99.90;;;;;;5091873;28;20212;-60
2021/10/19 05:17:29;;;;;;;11.87;9.50;;;10.80;99.90;;;;;;5091810;28;20224;-61
2021/10/19 05:19:56;;;;;;;16.70;12.30;;;10.80;99.90;;;;;;5091760;28;20306;-61
2021/10/19 05:22:24;;;;;;;10.20;8.47;;;10.80;99.90;;;;;;5091841;28;20204;-60
2021/10/19 05:24:51;;;;;;;10.77;8.50;;;10.70;99.90;;;;;;5091630;28;20208;-61
2021/10/19 05:27:17;;;;;;;9.07;7.90;;;10.70;99.90;;;;;;5091616;28;20224;-60
2021/10/19 05:29:44;;;;;;;11.27;8.47;;;10.80;99.90;;;;;;5091278;28;20208;-60
2021/10/19 05:32:11;;;;;;;11.17;9.03;;;10.80;99.90;;;;;;5091745;28;20228;-61
2021/10/19 05:34:38;;;;;;;9.80;7.93;;;10.90;99.90;;;;;;5091791;28;20215;-60
2021/10/19 05:37:04;;;;;;;9.83;7.83;;;10.90;99.90;;;;;;5091679;28;20287;-61
2021/10/19 05:39:32;;;;;;;9.57;7.80;;;10.80;99.90;;;;;;5091756;28;20208;-61
2021/10/19 05:42:00;;;;;;;8.90;8.00;;;10.90;99.90;;;;;;5091350;28;20590;-61
2021/10/19 05:44:27;;;;;;;11.10;8.10;;;10.90;99.90;;;;;;5091063;28;20208;-61
2021/10/19 05:46:54;;;;;;;11.37;8.33;;;10.90;99.90;;;;;;5091468;28;20227;-61
2021/10/19 05:49:21;;;;;;;10.33;7.60;;;11.00;99.90;;;;;;5091520;28;20212;-61
2021/10/19 05:51:48;;;;;;;10.17;7.87;;;11.10;99.90;;;;;;5091696;28;20215;-60
2021/10/19 05:54:16;;;;;;;11.03;8.40;;;11.20;99.90;;;;;;5090947;28;20235;-61
2021/10/19 05:56:44;;;;;;;9.27;7.83;;;11.30;99.90;;;;;;5093621;28;20738;-61
2021/10/19 05:59:11;;;;;;;11.17;7.73;;;11.40;99.90;;;;;;5095117;28;20204;-61
2021/10/19 06:01:38;;;;;;;8.80;7.13;;;11.50;99.90;;;;;;5095554;28;20204;-61
2021/10/19 06:04:05;;;;;;;9.20;7.23;;;11.50;99.90;;;;;;5095244;28;20215;-61
2021/10/19 06:06:32;;;;;;;10.90;7.70;;;11.50;99.90;;;;;;5095614;28;20224;-61
2021/10/19 06:08:59;;;;;;;8.90;7.50;;;11.60;99.90;;;;;;5095356;28;20211;-60
2021/10/19 06:11:25;;;;;;;9.80;7.20;;;11.70;99.90;;;;;;5095287;28;20712;-61
2021/10/19 06:13:53;;;;;;;9.23;7.53;;;11.80;99.90;;;;;;5094591;28;20699;-61
2021/10/19 06:16:20;;;;;;;10.10;8.20;;;11.70;99.90;;;;;;5095305;28;20262;-60
2021/10/19 06:18:47;;;;;;;9.43;7.70;;;11.80;99.90;;;;;;5094959;28;20772;-61
2021/10/19 06:21:14;;;;;;;9.63;7.60;;;11.80;99.90;;;;;;5095243;28;20671;-61
2021/10/19 06:23:41;;;;;;;10.67;7.83;;;11.80;99.90;;;;;;5095051;28;20201;-58
2021/10/19 06:26:08;;;;;;;10.17;8.40;;;11.70;99.90;;;;;;5095001;28;20214;-59
2021/10/19 06:28:34;;;;;;;9.33;7.90;;;11.80;99.90;;;;;;5094898;28;20235;-59
2021/10/19 06:31:02;;;;;;;9.57;7.67;;;12.00;99.90;;;;;;5094581;28;20204;-59
2021/10/19 06:33:29;;;;;;;9.57;7.27;;;12.10;99.90;;;;;;5094698;28;20223;-60
2021/10/19 06:35:56;;;;;;;9.00;7.33;;;12.10;99.90;;;;;;5095071;28;20212;-60
2021/10/19 06:38:22;;;;;;;11.03;7.30;;;12.20;99.90;;;;;;5094738;28;20261;-60
2021/10/19 06:40:49;;;;;;;9.00;6.87;;;12.20;99.90;;;;;;5094611;28;20579;-59
2021/10/19 06:43:16;;;;;;;8.87;6.33;;;12.40;99.90;;;;;;5094828;28;20211;-60
2021/10/19 06:45:43;;;;;;;8.93;7.20;;;12.50;99.90;;;;;;5094319;28;20644;-60
2021/10/19 06:48:11;;;;;;;11.10;7.17;;;12.70;99.90;;;;;;5094477;28;20235;-60
2021/10/19 06:50:38;;;;;;;8.17;7.07;;;12.80;99.90;;;;;;5094563;28;20212;-60
2021/10/19 06:53:05;;;;;;;8.07;6.90;;;12.90;99.90;;;;;;5094170;28;20226;-60
2021/10/19 06:55:31;;;;;;;7.00;6.20;;;13.00;99.90;;;;;;5094499;28;20703;-60
2021/10/19 06:57:59;;;;;;;10.53;7.40;;;13.00;99.90;;;;;;5094353;28;20711;-60
2021/10/19 07:00:25;;;;;;;12.03;7.63;;;13.10;99.90;;;;;;5094497;28;20700;-60
2021/10/19 07:02:52;;;;;;;8.57;6.30;;;13.10;99.90;;;;;;5094358;28;20207;-60
2021/10/19 07:05:20;;;;;;;7.30;6.07;;;13.00;99.90;;;;;;5094091;28;20211;-60
2021/10/19 07:07:47;;;;;;;8.47;6.03;;;13.00;99.90;;;;;;5092765;28;20290;-60
2021/10/19 07:10:14;;;;;;;8.57;6.10;;;13.10;99.90;;;;;;5093929;28;20208;-60
2021/10/19 07:12:41;;;;;;;7.47;5.77;;;13.20;99.90;;;;;;5094083;28;20204;-64
2021/10/19 07:15:10;;;;;;;8.57;6.10;;;13.30;99.90;;;;;;5093837;28;20200;-64
2021/10/19 07:17:38;;;;;;;7.50;5.80;;;13.30;99.90;;;;;;5093706;28;20231;-64
2021/10/19 07:20:06;;;;;;;8.13;5.90;;;13.40;99.90;;;;;;5094543;28;20287;-64
2021/10/19 07:22:34;;;;;;;6.73;5.60;;;13.40;99.90;;;;;;5094260;28;20257;-64
2021/10/19 07:25:03;;;;;;;8.00;5.43;;;13.40;99.90;;;;;;5094004;28;20208;-63
2021/10/19 07:27:30;;;;;;;6.50;5.73;;;13.30;99.90;;;;;;5093859;28;20224;-64
2021/10/19 07:29:57;;;;;;;6.67;5.47;;;13.30;99.90;;;;;;5094144;28;20208;-64
2021/10/19 07:32:24;;;;;;;9.63;6.50;;;13.30;99.90;;;;;;5093570;28;20212;-64
2021/10/19 07:34:51;;;;;;;6.23;5.60;;;13.30;99.90;;;;;;5093286;28;20224;-64
2021/10/19 07:37:17;;;;;;;10.00;6.10;;;13.40;99.90;;;;;;5093608;28;20232;-64
2021/10/19 07:39:46;;;;;;;9.67;6.20;;;13.50;99.90;;;;;;5093401;28;20262;-64
2021/10/19 07:42:13;;;;;;;7.10;5.80;;;13.60;99.90;;;;;;5093610;28;20676;-64
2021/10/19 07:44:39;;;;;;;6.27;5.63;;;13.60;99.90;;;;;;5093209;28;20261;-64
2021/10/19 07:47:06;;;;;;;8.63;5.97;;;13.60;99.90;;;;;;5093469;28;20269;-63
2021/10/19 07:49:33;;;;;;;6.33;5.73;;;13.50;99.90;;;;;;5093338;28;20204;-64
2021/10/19 07:51:59;;;;;;;6.87;5.67;;;13.60;99.90;;;;;;5093486;28;20680;-64
2021/10/19 07:54:26;;;;;;;7.60;6.27;;;13.70;99.90;;;;;;5093057;28;20231;-64
2021/10/19 07:56:54;;;;;;;7.33;5.40;;;13.70;99.90;;;;;;5092964;28;20227;-64
2021/10/19 07:59:21;;;;;;;7.03;5.97;;;13.80;99.90;;;;;;5093008;28;20204;-59
2021/10/19 08:01:48;;;;;;;7.83;5.40;;;13.80;99.90;;;;;;5092512;28;20201;-60
2021/10/19 08:04:14;;;;;;;7.23;5.80;;;13.60;99.90;;;;;;5092899;28;20204;-61
2021/10/19 08:06:41;;;;;;;10.23;6.20;;;13.40;99.90;;;;;;5092468;28;20204;-61
2021/10/19 08:09:08;;;;;;;8.17;6.10;;;13.20;99.90;;;;;;5092282;28;20576;-61
2021/10/19 08:11:35;;;;;;;9.93;7.27;;;13.10;99.90;;;;;;5092562;28;20217;-61
2021/10/19 08:14:03;;;;;;;11.67;7.00;;;13.20;99.90;;;;;;5092137;28;20228;-62
2021/10/19 08:16:29;;;;;;;12.10;7.03;;;13.40;99.90;;;;;;5092274;28;20208;-62
2021/10/19 08:18:56;;;;;;;8.03;6.80;;;13.60;99.90;;;;;;5091840;28;20226;-61
2021/10/19 08:21:23;;;;;;;8.13;7.13;;;13.90;99.90;;;;;;5092493;28;20215;-61
2021/10/19 08:23:50;;;;;;;9.77;7.07;;;14.20;99.90;;;;;;5092270;28;20200;-61
2021/10/19 08:26:17;;;;;;;8.40;7.23;;;14.40;99.90;;;;;;5092432;28;20212;-61
2021/10/19 08:28:46;;;;;;;8.00;6.63;;;14.50;99.90;;;;;;5092134;28;20224;-61
2021/10/19 08:31:16;;;;;;;10.60;7.70;;;14.60;99.90;;;;;;5092154;28;20668;-61
2021/10/19 08:33:44;;;;;;;11.40;7.73;;;14.70;99.90;;;;;;5091870;28;20691;-61
2021/10/19 08:36:11;;;;;;;11.90;7.90;;;14.80;99.90;;;;;;5092207;28;20564;-61
2021/10/19 08:38:39;;;;;;;9.20;7.77;;;14.80;99.90;;;;;;5091722;28;20236;-61
2021/10/19 08:41:06;;;;;;;7.37;6.23;;;14.80;99.90;;;;;;5092133;28;20204;-62
2021/10/19 08:43:33;;;;;;;11.10;7.10;;;14.80;99.90;;;;;;5091866;28;20200;-61
2021/10/19 08:46:00;;;;;;;10.27;6.80;;;14.80;99.90;;;;;;5092764;28;20212;-67
2021/10/19 08:48:28;;;;;;;8.47;7.20;;;14.90;99.90;;;;;;5092457;28;20780;-61
2021/10/19 08:50:57;;;;;;;10.93;7.07;;;15.00;99.90;;;;;;5091900;28;20207;-61
2021/10/19 08:53:24;;;;;;;10.40;6.40;;;15.10;99.90;;;;;;5091497;28;20305;-61
2021/10/19 08:55:51;;;;;;;8.33;6.77;;;15.20;99.90;;;;;;5091462;28;20211;-61
2021/10/19 08:58:17;;;;;;;7.93;5.70;;;15.40;99.90;;;;;;5091596;28;20239;-61
2021/10/19 09:00:44;;;;;;;7.30;5.70;;;15.50;99.90;;;;;;5091650;28;20204;-60
2021/10/19 09:03:11;;;;;;;5.97;5.07;;;15.50;99.90;;;;;;5091425;28;20219;-61
2021/10/19 09:05:45;;;;;;;5.73;5.13;;;15.60;99.90;;;;;;5091313;28;20204;-60
2021/10/19 09:08:12;;;;;;;6.70;5.73;;;15.50;99.90;;;;;;5091135;28;20220;-60
2021/10/19 09:10:41;;;;;;;9.43;6.07;;;15.50;99.90;;;;;;5091251;28;20239;-60
2021/10/19 09:13:10;;;;;;;7.80;5.60;;;15.20;99.90;;;;;;5091409;28;20589;-59
2021/10/19 09:15:39;;;;;;;17.87;7.03;;;15.20;99.90;;;;;;5091331;28;20204;-60
2021/10/19 09:18:08;;;;;;;14.00;9.37;;;15.20;99.90;;;;;;5091313;28;20318;-60
2021/10/19 09:20:36;;;;;;;10.07;7.20;;;15.10;99.90;;;;;;5091375;28;20208;-60
2021/10/19 09:23:05;;;;;;;14.57;9.60;;;15.10;99.90;;;;;;5091475;28;20235;-61
2021/10/19 09:25:33;;;;;;;24.23;14.97;;;15.10;99.90;;;;;;5091593;28;20211;-60
2021/10/19 09:28:02;;;;;;;7.90;6.20;;;15.20;99.90;;;;;;5091160;28;20603;-60
2021/10/19 09:30:33;;;;;;;10.37;7.57;;;15.30;99.90;;;;;;5090745;28;20294;-60
2021/10/19 09:33:00;;;;;;;8.73;5.00;;;15.40;99.90;;;;;;5091000;28;20203;-63
2021/10/19 09:35:27;;;;;;;5.17;3.23;;;15.50;99.90;;;;;;5091256;28;20227;-56
2021/10/19 09:37:59;;;;;;;4.27;2.77;;;15.50;99.90;;;;;;5091188;28;20231;-58
2021/10/19 09:40:36;;;;;;;3.03;2.40;;;15.60;99.90;;;;;;5091190;28;20704;-61
2021/10/19 09:43:05;;;;;;;4.17;2.70;;;15.60;99.90;;;;;;5090997;28;20207;-59
2021/10/19 09:45:32;;;;;;;3.93;2.50;;;15.80;99.90;;;;;;5090271;28;20233;-57
2021/10/19 09:47:59;;;;;;;5.47;2.30;;;16.00;99.90;;;;;;5090074;28;20224;-60
2021/10/19 09:50:27;;;;;;;3.63;2.20;;;16.20;99.90;;;;;;5090949;28;20200;-58
2021/10/19 09:52:55;;;;;;;2.97;2.37;;;16.50;99.90;;;;;;5090826;28;20671;-58
2021/10/19 09:55:23;;;;;;;4.87;2.50;;;16.70;99.90;;;;;;5090664;28;20231;-59
2021/10/19 09:57:52;;;;;;;3.90;2.37;;;16.90;99.90;;;;;;5090636;28;20231;-59
2021/10/19 10:00:21;;;;;;;2.93;2.07;;;17.10;99.90;;;;;;5090682;28;20232;-59
2021/10/19 10:02:48;;;;;;;3.03;2.10;;;17.10;99.90;;;;;;5090496;28;20214;-59
2021/10/19 10:05:16;;;;;;;2.17;1.97;;;17.30;99.90;;;;;;5090650;28;20200;-59
2021/10/19 10:07:46;;;;;;;3.00;1.90;;;17.40;99.90;;;;;;5090523;28;20244;-59
2021/10/19 10:10:15;;;;;;;3.03;2.40;;;17.60;99.90;;;;;;5090901;28;20212;-59
2021/10/19 10:12:45;;;;;;;3.33;2.10;;;17.70;99.90;;;;;;5090759;28;20231;-59
2021/10/19 10:15:25;;;;;;;2.55;2.00;;;17.70;99.90;;;;;;5090155;28;20224;-58
2021/10/19 10:17:55;;;;;;;2.70;2.10;;;17.80;99.90;;;;;;5090683;28;20224;-58
2021/10/19 10:20:31;;;;;;;2.60;2.33;;;17.90;99.90;;;;;;5090438;28;20236;-60
2021/10/19 10:22:58;;;;;;;1.95;1.77;;;17.90;99.90;;;;;;5090379;28;20250;-59
2021/10/19 10:25:25;;;;;;;2.67;1.90;;;17.90;99.90;;;;;;5090096;28;20683;-59
2021/10/19 10:27:53;;;;;;;2.75;2.30;;;18.00;99.90;;;;;;5090236;28;20260;-59
2021/10/19 10:30:23;;;;;;;3.67;1.92;;;18.10;99.90;;;;;;5090528;28;20660;-59
2021/10/19 10:32:53;;;;;;;2.60;1.98;;;18.10;99.90;;;;;;5090760;28;20291;-59
2021/10/19 10:35:24;;;;;;;2.40;2.00;;;18.20;99.90;;;;;;5090495;28;20228;-59
2021/10/19 10:37:54;;;;;;;2.42;1.95;;;18.10;99.90;;;;;;5090015;28;20228;-59
2021/10/19 10:40:31;;;;;;;2.40;1.90;;;18.00;99.90;;;;;;5090691;28;20211;-59
2021/10/19 10:42:59;;;;;;;3.60;1.90;;;17.90;99.90;;;;;;5093104;28;20212;-59
2021/10/19 10:45:32;;;;;;;3.70;2.00;;;17.90;99.90;;;;;;5094210;28;20204;-59
2021/10/19 10:48:01;;;;;;;2.17;1.98;;;17.90;99.90;;;;;;5093738;28;20707;-59
2021/10/19 10:50:28;;;;;;;3.07;2.50;;;18.00;99.90;;;;;;5093973;28;20231;-59
2021/10/19 10:53:00;;;;;;;4.68;2.33;;;18.10;99.90;;;;;;5093840;28;20610;-59
2021/10/19 10:55:27;;;;;;;2.10;1.90;;;18.10;99.90;;;;;;5093932;28;20285;-59
2021/10/19 10:57:54;;;;;;;2.90;2.13;;;18.10;99.90;;;;;;5093618;28;20224;-59
2021/10/19 11:00:25;;;;;;;2.42;1.90;;;18.10;99.90;;;;;;5093946;28;20208;-59
2021/10/19 11:03:07;;;;;;;2.70;2.10;;;18.10;99.90;;;;;;5093860;28;20679;-59
2021/10/19 11:05:35;;;;;;;3.50;2.50;;;18.10;99.90;;;;;;5094038;28;20204;-60
2021/10/19 11:08:02;;;;;;;3.08;2.25;;;18.20;99.90;;;;;;5093745;28;20227;-61
2021/10/19 11:10:28;;;;;;;4.10;2.00;;;18.00;99.90;;;;;;5093539;28;20200;-59
2021/10/19 11:13:01;;;;;;;2.90;2.10;;;18.10;99.90;;;;;;5093532;28;20244;-59
2021/10/19 11:15:28;;;;;;;2.90;2.30;;;18.10;99.90;;;;;;5093077;28;20228;-59
2021/10/19 11:17:57;;;;;;;2.35;2.10;;;18.10;99.90;;;;;;5093053;28;20630;-59
2021/10/19 11:20:26;;;;;;;3.45;2.13;;;18.20;99.90;;;;;;5093929;28;20212;-59
2021/10/19 11:22:53;;;;;;;2.08;1.88;;;18.20;99.90;;;;;;5093377;28;20254;-59
2021/10/19 11:25:21;;;;;;;2.45;2.25;;;18.20;99.90;;;;;;5093147;28;20200;-59
2021/10/19 11:27:51;;;;;;;2.60;2.40;;;18.30;99.90;;;;;;5093111;28;20228;-60
2021/10/19 11:30:18;;;;;;;3.33;1.98;;;18.50;99.90;;;;;;5093117;28;20248;-60
2021/10/19 11:32:45;;;;;;;3.08;2.28;;;18.60;99.90;;;;;;5093066;28;20207;-60
2021/10/19 11:35:13;;;;;;;3.30;2.40;;;18.80;99.90;;;;;;5092910;28;20228;-60
2021/10/19 11:37:40;;;;;;;2.42;2.22;;;18.90;99.90;;;;;;5092825;28;20618;-60
2021/10/19 11:40:09;;;;;;;3.80;2.08;;;18.90;99.90;;;;;;5092796;28;20200;-60
2021/10/19 11:42:47;;;;;;;2.38;1.92;;;19.10;99.90;;;;;;5093305;28;20241;-59
2021/10/19 11:45:16;;;;;;;2.20;1.98;;;19.10;99.90;;;;;;5093093;28;20203;-59
2021/10/19 11:47:47;;;;;;;1.95;1.75;;;19.20;99.90;;;;;;5093062;28;20231;-61
2021/10/19 11:50:19;;;;;;;2.40;2.00;;;19.30;99.90;;;;;;5092917;28;20204;-60
2021/10/19 11:52:47;;;;;;;2.38;1.80;;;19.40;99.90;;;;;;5093275;28;20211;-60
2021/10/19 11:55:14;;;;;;;2.53;1.88;;;19.50;99.90;;;;;;5091999;28;20224;-59
2021/10/19 11:57:40;;;;;;;2.15;1.80;;;19.60;99.90;;;;;;5093166;28;20457;-60
2021/10/19 12:00:09;;;;;;;3.58;1.73;;;19.60;99.90;;;;;;5074786;28;20686;-61
2021/10/19 12:02:36;;;;;;;2.13;1.92;;;19.70;99.90;;;;;;5072792;28;20213;-60
2021/10/19 12:05:07;;;;;;;2.20;1.92;;;19.70;99.90;;;;;;5072487;28;20215;-60
2021/10/19 12:07:35;;;;;;;3.60;1.85;;;19.60;99.90;;;;;;5071857;28;20233;-62
2021/10/19 12:10:10;;;;;;;3.63;1.77;;;19.60;99.90;;;;;;5085653;28;20208;-62
2021/10/19 12:12:37;;;;;;;2.25;1.60;;;19.50;99.90;;;;;;5092419;28;20231;-63
2021/10/19 12:15:04;;;;;;;1.77;1.60;;;19.50;99.90;;;;;;5092233;28;20327;-64
2021/10/19 12:17:31;;;;;;;4.30;2.90;;;19.60;99.90;;;;;;5092585;28;20236;-64
2021/10/19 12:19:57;;;;;;;2.35;1.70;;;19.60;99.90;;;;;;5092219;28;20216;-64
2021/10/19 12:22:33;;;;;;;2.53;1.90;;;19.70;99.90;;;;;;5091750;28;20200;-64
2021/10/19 12:25:04;;;;;;;3.58;1.90;;;19.70;99.90;;;;;;5092296;28;20227;-63
2021/10/19 12:27:30;;;;;;;5.65;4.05;;;19.80;99.90;;;;;;5092226;28;20224;-62
2021/10/19 12:29:57;;;;;;;2.20;1.80;;;20.00;99.90;;;;;;5092134;28;20303;-64
2021/10/19 12:32:32;;;;;;;2.17;1.70;;;20.00;99.90;;;;;;5091875;28;20227;-63
2021/10/19 12:35:00;;;;;;;2.50;1.67;;;20.00;99.90;;;;;;5091506;28;20227;-62
2021/10/19 12:37:32;;;;;;;2.97;1.95;;;20.10;99.90;;;;;;5111554;22;20315;-65
2021/10/19 12:40:03;;;;;;;2.17;1.70;;;20.00;99.90;;;;;;5070871;28;20212;-67
2021/10/19 12:42:30;;;;;;;1.85;1.63;;;20.00;99.90;;;;;;5070265;28;20228;-66